Time;durP1;ratioP1;P1;durP2;ratioP2;P2;SDS_P1;SDS_P2;PMS_P1;PMS_P2;Temp;Humidity;BMP_temperature;BMP_pressure;BME280_temperature;BME280_humidity;BME280_pressure;Samples;Min_cycle;Max_cycle;Signal;HPM_P1;HPM_P2
2022/06/24 00:00:05;;;;;;;8.57;6.50;;;;;;;16.49;100.00;100552.56;5010226;28;20388;-78
2022/06/24 00:02:32;;;;;;;8.20;5.38;;;;;;;16.50;100.00;100549.81;4977504;28;20419;-78
2022/06/24 00:05:01;;;;;;;6.63;5.93;;;;;;;16.43;100.00;100547.50;4972946;28;20452;-77
2022/06/24 00:07:28;;;;;;;8.90;6.60;;;;;;;16.34;100.00;100540.81;4970951;28;20056;-78
2022/06/24 00:09:54;;;;;;;8.95;6.13;;;;;;;16.25;100.00;100539.44;4995472;28;20046;-78
2022/06/24 00:12:24;;;;;;;7.35;6.10;;;;;;;16.31;100.00;100536.50;4978139;28;20048;-78
2022/06/24 00:14:58;;;;;;;8.68;6.55;;;;;;;16.27;100.00;100545.53;4975580;28;20121;-77
2022/06/24 00:17:34;;;;;;;7.32;5.95;;;;;;;16.28;100.00;100549.06;4978143;28;20621;-78
2022/06/24 00:20:11;;;;;;;7.97;6.63;;;;;;;16.29;100.00;100546.34;4992779;28;20038;-77
2022/06/24 00:22:46;;;;;;;7.30;6.30;;;;;;;16.20;100.00;100546.75;4976852;28;20061;-78
2022/06/24 00:25:20;;;;;;;9.95;6.30;;;;;;;16.21;100.00;100542.28;4974655;28;21309;-77
2022/06/24 00:28:10;;;;;;;7.10;5.95;;;;;;;16.13;100.00;100545.28;4993404;28;20037;-78
2022/06/24 00:30:42;;;;;;;8.57;5.70;;;;;;;16.13;100.00;100544.44;4973901;28;20045;-78
2022/06/24 00:33:16;;;;;;;9.23;6.60;;;;;;;16.12;100.00;100538.25;5011122;28;20554;-77
2022/06/24 00:35:48;;;;;;;9.30;7.03;;;;;;;16.15;100.00;100537.25;4989102;28;20041;-78
2022/06/24 00:38:31;;;;;;;7.07;6.38;;;;;;;16.07;100.00;100540.25;4978764;28;20054;-77
2022/06/24 00:41:09;;;;;;;7.30;6.40;;;;;;;16.03;100.00;100530.66;4991142;28;20041;-78
2022/06/24 00:43:36;;;;;;;6.68;6.07;;;;;;;16.03;100.00;100528.00;4968699;28;20041;-77
2022/06/24 00:46:06;;;;;;;8.88;6.72;;;;;;;15.95;100.00;100533.66;4992497;28;20049;-78
2022/06/24 00:48:35;;;;;;;7.05;6.35;;;;;;;15.95;100.00;100525.69;4993131;28;20458;-77
2022/06/24 00:51:02;;;;;;;7.13;6.38;;;;;;;15.97;100.00;100530.94;4966570;28;20042;-77
2022/06/24 00:53:29;;;;;;;9.48;7.20;;;;;;;15.97;100.00;100525.59;4973640;28;20037;-77
2022/06/24 00:55:55;;;;;;;7.35;6.60;;;;;;;15.96;100.00;100519.41;4991659;28;20042;-77
2022/06/24 00:58:22;;;;;;;7.60;5.72;;;;;;;15.86;100.00;100523.41;4959612;28;20046;-77
2022/06/24 01:00:49;;;;;;;8.75;6.57;;;;;;;15.88;100.00;100523.34;4951756;28;20034;-77
2022/06/24 01:03:16;;;;;;;8.23;6.97;;;;;;;15.97;100.00;100517.59;4958529;28;20042;-77
2022/06/24 01:05:43;;;;;;;7.32;6.20;;;;;;;15.87;100.00;100524.28;4984814;28;20077;-77
2022/06/24 01:08:16;;;;;;;7.78;6.30;;;;;;;15.85;100.00;100526.16;5023103;23;20494;-82
2022/06/24 01:10:47;;;;;;;6.55;5.70;;;;;;;15.86;100.00;100514.56;4968975;28;20041;-82
2022/06/24 01:13:14;;;;;;;7.97;6.00;;;;;;;15.90;100.00;100502.84;4956882;28;20049;-82
2022/06/24 01:15:40;;;;;;;7.32;6.60;;;;;;;15.83;100.00;100506.72;4943004;28;20050;-83
2022/06/24 01:18:07;;;;;;;7.55;5.95;;;;;;;15.77;100.00;100514.03;4957028;28;20058;-83
2022/06/24 01:20:34;;;;;;;7.50;6.60;;;;;;;15.86;100.00;100506.56;4936989;28;20397;-82
2022/06/24 01:23:01;;;;;;;8.57;7.00;;;;;;;15.74;100.00;100505.34;4975514;28;20039;-82
2022/06/24 01:25:30;;;;;;;7.25;6.50;;;;;;;15.77;100.00;100503.38;4959528;28;20047;-83
2022/06/24 01:27:57;;;;;;;6.82;6.00;;;;;;;15.76;100.00;100504.31;4989794;28;20076;-82
2022/06/24 01:30:24;;;;;;;8.30;6.85;;;;;;;15.80;100.00;100507.69;4976845;28;20042;-82
2022/06/24 01:32:50;;;;;;;8.98;5.93;;;;;;;15.73;100.00;100507.13;4960725;28;20042;-82
2022/06/24 01:35:17;;;;;;;7.95;6.25;;;;;;;15.66;100.00;100503.00;4960099;28;20057;-82
2022/06/24 01:37:44;;;;;;;7.95;6.38;;;;;;;15.71;100.00;100502.78;4960823;28;20042;-84
2022/06/24 01:40:11;;;;;;;7.60;6.70;;;;;;;15.60;100.00;100511.22;4996323;28;20057;-82
2022/06/24 01:42:37;;;;;;;8.73;5.95;;;;;;;15.52;100.00;100502.69;4976012;28;20054;-83
2022/06/24 01:45:05;;;;;;;7.32;6.15;;;;;;;15.46;100.00;100505.63;4976112;28;20048;-83
2022/06/24 01:47:31;;;;;;;6.55;6.00;;;;;;;15.48;100.00;100498.47;4960810;28;20042;-83
2022/06/24 01:49:58;;;;;;;7.13;6.10;;;;;;;15.51;100.00;100497.44;4956020;28;20051;-84
2022/06/24 01:52:25;;;;;;;7.15;6.10;;;;;;;15.42;100.00;100496.91;4953837;28;20051;-83
2022/06/24 01:54:52;;;;;;;7.05;6.10;;;;;;;15.37;100.00;100492.72;4957585;28;20126;-83
2022/06/24 01:57:18;;;;;;;7.07;6.00;;;;;;;15.27;100.00;100502.88;4974603;28;20075;-84
2022/06/24 01:59:45;;;;;;;7.15;6.20;;;;;;;15.24;100.00;100502.16;4958930;28;20085;-83
2022/06/24 02:02:12;;;;;;;7.25;6.05;;;;;;;15.21;100.00;100501.34;4959702;28;20049;-83
2022/06/24 02:04:39;;;;;;;7.75;6.25;;;;;;;15.16;100.00;100499.81;4972366;28;20056;-83
2022/06/24 02:07:06;;;;;;;7.22;6.18;;;;;;;15.11;100.00;100507.97;4977006;28;20045;-82
2022/06/24 02:13:26;;;;;;;8.38;6.68;;;;;;;15.07;100.00;100502.88;4979862;28;20045;-83
2022/06/24 02:15:04;;;;;;;8.57;6.68;;;;;;;15.02;100.00;100505.69;5004553;28;20053;-83
2022/06/24 02:17:31;;;;;;;9.23;7.53;;;;;;;15.04;100.00;100501.19;4978133;28;20046;-84
2022/06/24 02:19:58;;;;;;;6.38;5.78;;;;;;;15.07;100.00;100495.75;4970219;28;20049;-83
2022/06/24 02:22:25;;;;;;;8.30;7.03;;;;;;;14.98;100.00;100498.78;4974820;28;20042;-83
2022/06/24 02:24:52;;;;;;;8.10;6.28;;;;;;;14.97;100.00;100502.38;4974784;28;20041;-83
2022/06/24 02:27:19;;;;;;;8.32;6.97;;;;;;;14.97;100.00;100497.06;4984246;28;20046;-83
2022/06/24 02:29:45;;;;;;;6.85;6.15;;;;;;;14.87;100.00;100498.34;4958012;28;20458;-83
2022/06/24 02:32:12;;;;;;;11.05;6.93;;;;;;;14.89;100.00;100491.19;4959360;28;20496;-83
2022/06/24 02:34:39;;;;;;;8.15;6.82;;;;;;;14.86;100.00;100489.50;4973924;28;20117;-83
2022/06/24 02:37:05;;;;;;;7.80;6.63;;;;;;;14.79;100.00;100490.66;4960272;28;20038;-82
2022/06/24 02:39:32;;;;;;;7.72;6.28;;;;;;;14.79;100.00;100487.16;4982886;28;20487;-83
2022/06/24 02:41:59;;;;;;;10.48;7.18;;;;;;;14.81;100.00;100490.63;4975806;28;20073;-82
2022/06/24 02:44:25;;;;;;;7.43;6.72;;;;;;;14.78;100.00;100485.41;4970919;28;20039;-83
2022/06/24 02:46:52;;;;;;;10.45;7.22;;;;;;;14.73;100.00;100488.28;4956751;28;20043;-83
2022/06/24 02:49:19;;;;;;;7.43;6.72;;;;;;;14.77;100.00;100486.34;4987757;28;20074;-83
2022/06/24 02:51:45;;;;;;;7.75;6.95;;;;;;;14.70;100.00;100488.38;4972515;28;20499;-82
2022/06/24 02:54:12;;;;;;;8.45;7.00;;;;;;;14.69;100.00;100497.28;4985382;28;20038;-83
2022/06/24 02:56:38;;;;;;;8.80;7.07;;;;;;;14.72;100.00;100497.19;4976290;28;20043;-83
2022/06/24 02:59:10;;;;;;;9.75;6.70;;;;;;;14.77;100.00;100499.66;4958371;28;20073;-83
2022/06/24 03:01:37;;;;;;;7.18;6.30;;;;;;;14.72;100.00;100494.53;4974366;28;20043;-83
2022/06/24 03:04:04;;;;;;;9.73;7.07;;;;;;;14.67;100.00;100495.63;4941830;28;20042;-84
2022/06/24 03:06:30;;;;;;;7.50;6.70;;;;;;;14.63;100.00;100490.44;4944704;28;20056;-83
2022/06/24 03:08:57;;;;;;;7.22;6.30;;;;;;;14.58;100.00;100487.09;4974394;28;20183;-83
2022/06/24 03:11:24;;;;;;;8.95;6.80;;;;;;;14.61;100.00;100494.06;4960271;28;20053;-83
2022/06/24 03:13:51;;;;;;;8.95;6.88;;;;;;;14.69;100.00;100483.13;4971164;28;20073;-82
2022/06/24 03:16:17;;;;;;;7.20;6.40;;;;;;;14.63;100.00;100490.44;4972689;28;20061;-82
2022/06/24 03:18:44;;;;;;;7.35;6.47;;;;;;;14.61;100.00;100491.41;4958305;28;20105;-82
2022/06/24 03:21:11;;;;;;;8.77;7.47;;;;;;;14.70;100.00;100487.53;4974279;28;20042;-82
2022/06/24 03:23:37;;;;;;;9.27;7.70;;;;;;;14.76;100.00;100489.94;4958598;28;20045;-82
2022/06/24 03:26:04;;;;;;;8.35;7.10;;;;;;;14.74;100.00;100487.34;4957523;28;20046;-82
2022/06/24 03:28:31;;;;;;;8.10;7.20;;;;;;;14.73;100.00;100484.75;4976889;28;20042;-80
2022/06/24 03:30:58;;;;;;;8.88;6.93;;;;;;;14.85;100.00;100486.91;4965760;28;20418;-81
2022/06/24 03:33:24;;;;;;;6.43;5.72;;;;;;;14.86;100.00;100483.31;4976221;28;20047;-81
2022/06/24 03:35:51;;;;;;;7.75;6.50;;;;;;;15.00;100.00;100482.75;4988771;28;20046;-81
2022/06/24 03:38:18;;;;;;;9.82;7.05;;;;;;;15.12;100.00;100485.75;4955335;28;20049;-82
2022/06/24 03:40:44;;;;;;;7.50;6.40;;;;;;;15.17;100.00;100481.13;4970794;28;20038;-78
2022/06/24 03:43:11;;;;;;;6.60;5.88;;;;;;;15.21;100.00;100484.50;4975913;28;20054;-78
2022/06/24 03:45:38;;;;;;;8.27;6.55;;;;;;;15.34;100.00;100477.75;4954253;28;20035;-79
2022/06/24 03:48:05;;;;;;;8.88;5.97;;;;;;;15.31;100.00;100479.69;4990766;28;20311;-78
2022/06/24 03:50:31;;;;;;;6.63;6.03;;;;;;;15.40;100.00;100481.94;4950781;28;20043;-79
2022/06/24 03:52:58;;;;;;;7.55;5.97;;;;;;;15.41;100.00;100481.00;4991892;28;20042;-83
2022/06/24 03:55:25;;;;;;;6.18;5.57;;;;;;;15.39;100.00;100477.56;4930512;28;20041;-81
2022/06/24 03:57:52;;;;;;;6.82;6.20;;;;;;;15.51;100.00;100474.34;4967838;28;20038;-82
2022/06/24 04:00:18;;;;;;;6.57;5.88;;;;;;;15.59;100.00;100480.19;4957370;28;20053;-81
2022/06/24 04:02:45;;;;;;;16.35;7.10;;;;;;;15.61;100.00;100481.03;4959289;28;20042;-79
2022/06/24 04:05:14;;;;;;;30.85;9.10;;;;;;;15.61;100.00;100472.19;4972794;28;20619;-81
2022/06/24 04:07:41;;;;;;;14.70;7.45;;;;;;;15.67;100.00;100466.59;4975804;28;20039;-79
2022/06/24 04:10:08;;;;;;;7.95;6.07;;;;;;;15.74;100.00;100473.38;4954908;28;20117;-81
2022/06/24 04:12:34;;;;;;;8.20;5.72;;;;;;;15.84;100.00;100468.50;4953167;28;20407;-83
2022/06/24 04:15:13;;;;;;;6.03;5.43;;;;;;;15.86;100.00;100475.47;4969822;28;20034;-79
2022/06/24 04:17:40;;;;;;;8.43;7.30;;;;;;;15.96;100.00;100467.91;4972570;28;20410;-79
2022/06/24 04:20:07;;;;;;;6.60;5.88;;;;;;;16.04;100.00;100481.75;4955993;28;20499;-81
2022/06/24 04:22:34;;;;;;;17.10;7.25;;;;;;;16.05;100.00;100473.69;4973793;28;20038;-79
2022/06/24 04:25:01;;;;;;;111.68;15.65;;;;;;;16.08;100.00;100469.19;4970488;28;20062;-78
2022/06/24 04:27:28;;;;;;;42.35;10.95;;;;;;;16.19;100.00;100480.19;4951520;28;20102;-79
2022/06/24 04:29:59;;;;;;;8.80;5.72;;;;;;;16.35;100.00;100473.22;4974909;28;20101;-79
2022/06/24 04:32:26;;;;;;;11.45;6.32;;;;;;;16.56;100.00;100469.53;4956544;28;20514;-78
2022/06/24 04:34:53;;;;;;;7.72;5.60;;;;;;;16.70;99.56;100468.88;4984659;28;20042;-79
2022/06/24 04:37:19;;;;;;;6.57;5.78;;;;;;;16.82;100.00;100464.75;4973316;28;20038;-78
2022/06/24 04:39:46;;;;;;;6.78;5.70;;;;;;;16.86;98.29;100461.84;4971752;28;20101;-79
2022/06/24 04:42:13;;;;;;;6.20;5.60;;;;;;;17.02;94.96;100469.97;4964376;28;20038;-78
2022/06/24 04:44:40;;;;;;;5.78;5.10;;;;;;;17.13;95.21;100472.94;4958454;28;20034;-79
2022/06/24 04:47:12;;;;;;;6.95;5.07;;;;;;;17.29;88.84;100467.69;4992064;28;20049;-79
2022/06/24 04:49:38;;;;;;;6.35;5.75;;;;;;;17.48;90.92;100472.06;4961649;28;20049;-79
2022/06/24 04:52:06;;;;;;;6.18;4.95;;;;;;;17.55;88.62;100466.34;4965424;28;20038;-80
2022/06/24 04:54:32;;;;;;;5.50;5.00;;;;;;;17.64;90.09;100473.00;4950332;28;20582;-80
2022/06/24 04:56:59;;;;;;;5.78;5.18;;;;;;;17.68;87.29;100467.44;4973356;28;20166;-80
2022/06/24 04:59:26;;;;;;;5.53;4.82;;;;;;;17.80;89.41;100463.28;4982367;28;20525;-81
2022/06/24 05:01:53;;;;;;;5.20;4.70;;;;;;;17.86;88.68;100459.41;4975177;28;20057;-80
2022/06/24 05:04:20;;;;;;;5.40;4.95;;;;;;;18.17;82.23;100453.28;4974107;28;20038;-80
2022/06/24 05:06:49;;;;;;;5.30;4.80;;;;;;;18.23;80.14;100455.59;4977420;28;20050;-80
2022/06/24 05:09:17;;;;;;;6.38;4.55;;;;;;;18.37;81.60;100455.69;4957617;28;20043;-81
2022/06/24 05:11:44;;;;;;;5.93;5.07;;;;;;;18.56;79.57;100455.50;4963265;28;20038;-80
2022/06/24 05:14:10;;;;;;;5.40;4.90;;;;;;;18.70;79.43;100452.09;4958150;28;20049;-81
2022/06/24 05:16:37;;;;;;;7.03;4.68;;;;;;;18.97;74.51;100446.94;4960945;28;20050;-79
2022/06/24 05:19:05;;;;;;;13.57;5.72;;;;;;;19.52;72.63;100443.66;4962416;28;20057;-79
2022/06/24 05:21:32;;;;;;;10.93;5.05;;;;;;;20.07;69.66;100443.78;4974951;28;20050;-84
2022/06/24 05:23:59;;;;;;;6.03;4.47;;;;;;;20.10;68.33;100440.94;4971600;28;20054;-81
2022/06/24 05:26:27;;;;;;;4.95;4.45;;;;;;;20.17;69.42;100442.22;4967450;28;20046;-80
2022/06/24 05:28:54;;;;;;;4.70;4.30;;;;;;;20.28;67.74;100443.41;4961672;28;20042;-79
2022/06/24 05:31:20;;;;;;;8.52;5.07;;;;;;;20.17;68.37;100444.91;4974129;28;20089;-83
2022/06/24 05:33:47;;;;;;;4.60;4.20;;;;;;;20.15;69.66;100436.13;4952084;28;20052;-80
2022/06/24 05:36:14;;;;;;;4.88;4.47;;;;;;;20.18;68.20;100441.31;4938938;28;20050;-80
2022/06/24 05:38:42;;;;;;;5.32;4.40;;;;;;;20.50;67.81;100438.38;4963110;28;20061;-81
2022/06/24 05:41:11;;;;;;;5.53;3.97;;;;;;;21.27;63.73;100437.72;4958694;28;20054;-80
2022/06/24 05:43:38;;;;;;;5.82;4.82;;;;;;;23.58;57.42;100437.81;4957348;28;20503;-80
2022/06/24 05:46:05;;;;;;;4.20;3.88;;;;;;;25.76;49.26;100427.00;4957489;28;20074;-80
2022/06/24 05:48:32;;;;;;;4.20;3.80;;;;;;;27.42;43.15;100426.34;4957718;28;20045;-81
2022/06/24 05:50:59;;;;;;;4.00;3.60;;;;;;;28.66;41.44;100436.03;4957470;28;20042;-80
2022/06/24 05:56:11;;;;;;;5.50;3.80;;;;;;;30.58;34.14;100428.75;4960284;28;20517;-81
2022/06/24 05:58:38;;;;;;;4.72;4.20;;;;;;;31.01;33.70;100419.47;4973402;28;20148;-80
2022/06/24 06:01:11;;;;;;;5.70;3.38;;;;;;;31.60;34.11;100421.00;4972651;28;20495;-81
2022/06/24 06:03:38;;;;;;;;;;;;;;;31.68;33.83;100417.41;4974170;28;20131;-82
2022/06/24 06:06:06;;;;;;;4.35;2.97;;;;;;;31.75;33.56;100429.34;4972454;28;19925;-81
2022/06/24 06:08:33;;;;;;;5.05;3.97;;;;;;;31.14;34.50;100419.00;4958732;28;20064;-81
2022/06/24 06:11:00;;;;;;;4.13;3.75;;;;;;;30.29;37.83;100418.28;4992486;28;20125;-83
2022/06/24 06:13:27;;;;;;;4.28;3.88;;;;;;;29.50;39.18;100422.91;4961136;28;20042;-81
2022/06/24 06:15:54;;;;;;;4.95;4.10;;;;;;;29.02;39.44;100418.78;4959669;28;20045;-84
2022/06/24 06:18:21;;;;;;;3.85;3.50;;;;;;;28.36;39.44;100415.50;4961279;28;20081;-80
2022/06/24 06:20:47;;;;;;;3.90;3.58;;;;;;;27.94;39.69;100405.94;4975611;28;20119;-80
2022/06/24 06:23:14;;;;;;;4.35;3.63;;;;;;;27.95;40.32;100413.06;4960979;28;20065;-82
2022/06/24 06:25:41;;;;;;;4.45;4.05;;;;;;;27.96;41.57;100414.78;4991128;28;20046;-80
2022/06/24 06:28:08;;;;;;;3.95;3.55;;;;;;;27.94;40.96;100405.94;4993129;28;20042;-82
2022/06/24 06:30:34;;;;;;;4.25;3.85;;;;;;;28.03;40.87;100405.03;4991502;28;20049;-82
2022/06/24 06:33:01;;;;;;;4.82;4.05;;;;;;;28.24;40.87;100404.78;4981043;28;20069;-80
2022/06/24 06:35:28;;;;;;;23.60;5.47;;;;;;;27.97;40.33;100404.78;4975188;28;20093;-80
2022/06/24 06:37:54;;;;;;;4.93;4.30;;;;;;;27.15;41.00;100397.25;4961214;28;20183;-83
2022/06/24 06:40:22;;;;;;;5.15;4.22;;;;;;;27.01;42.12;100386.84;4959214;28;20054;-81
2022/06/24 06:42:55;;;;;;;4.82;3.80;;;;;;;27.14;41.09;100395.53;4976096;28;20039;-81
2022/06/24 06:45:25;;;;;;;4.00;3.63;;;;;;;27.31;42.69;100391.22;4993751;28;20046;-82
2022/06/24 06:47:51;;;;;;;4.80;3.65;;;;;;;27.42;40.70;100394.66;4982408;28;20045;-81
2022/06/24 06:50:18;;;;;;;4.90;3.67;;;;;;;27.55;41.09;100394.31;4992718;28;20052;-82
2022/06/24 06:52:45;;;;;;;5.50;3.80;;;;;;;27.96;40.81;100389.50;4943680;28;20121;-83
2022/06/24 06:55:12;;;;;;;4.72;3.92;;;;;;;27.96;40.14;100393.06;4962429;28;20045;-81
2022/06/24 06:57:38;;;;;;;4.32;3.92;;;;;;;27.82;40.14;100388.13;4986010;28;20050;-80
2022/06/24 07:00:06;;;;;;;5.05;3.58;;;;;;;27.91;39.47;100381.78;4974983;28;20141;-83
2022/06/24 07:02:32;;;;;;;4.28;3.80;;;;;;;27.80;39.86;100378.41;4967223;28;20042;-81
2022/06/24 07:05:00;;;;;;;4.60;3.97;;;;;;;27.96;40.02;100381.34;4975255;28;20042;-81
2022/06/24 07:07:26;;;;;;;5.53;4.38;;;;;;;28.18;37.98;100386.38;4994715;28;20513;-81
2022/06/24 07:09:54;;;;;;;6.63;4.00;;;;;;;28.25;38.66;100383.91;5042673;23;20034;-78
2022/06/24 07:12:21;;;;;;;3.40;3.10;;;;;;;28.80;39.24;100379.25;4993457;28;20045;-79
2022/06/24 07:14:47;;;;;;;3.90;3.50;;;;;;;29.23;38.48;100366.72;4976873;28;20042;-77
2022/06/24 07:17:15;;;;;;;4.65;3.72;;;;;;;29.36;37.85;100371.78;4973165;28;20046;-78
2022/06/24 07:19:42;;;;;;;4.03;3.60;;;;;;;29.47;37.49;100376.94;4973896;28;20109;-77
2022/06/24 07:22:09;;;;;;;4.57;4.18;;;;;;;29.39;36.42;100371.44;4972398;28;20046;-78
2022/06/24 07:24:36;;;;;;;6.03;4.13;;;;;;;29.01;37.82;100373.53;4993045;28;20088;-78
2022/06/24 07:27:08;;;;;;;4.60;4.20;;;;;;;28.81;37.82;100366.53;4979082;28;20502;-76
2022/06/24 07:29:36;;;;;;;4.32;3.83;;;;;;;28.48;37.54;100355.31;4977906;28;20045;-78
2022/06/24 07:32:04;;;;;;;5.40;3.83;;;;;;;28.78;38.25;100351.38;4983861;28;20473;-77
2022/06/24 07:34:31;;;;;;;4.13;3.60;;;;;;;28.97;36.83;100342.22;5012084;28;20395;-76
2022/06/24 07:36:59;;;;;;;4.88;4.32;;;;;;;29.06;37.07;100345.84;4998883;28;20041;-77
2022/06/24 07:39:26;;;;;;;4.38;3.83;;;;;;;29.27;37.99;100340.94;4980507;28;20050;-77
2022/06/24 07:41:55;;;;;;;4.18;3.88;;;;;;;29.79;36.45;100342.78;4968874;28;20039;-77
2022/06/24 07:44:22;;;;;;;4.38;3.53;;;;;;;29.63;35.30;100341.69;5007758;28;20049;-78
2022/06/24 07:46:50;;;;;;;3.75;3.45;;;;;;;29.80;36.06;100334.44;4997582;28;20081;-78
2022/06/24 07:49:17;;;;;;;4.35;3.90;;;;;;;29.99;35.80;100336.03;4996321;28;20042;-78
2022/06/24 07:51:44;;;;;;;4.50;4.05;;;;;;;30.40;35.52;100337.03;4988680;28;20048;-78
2022/06/24 07:54:10;;;;;;;4.10;3.75;;;;;;;30.46;34.34;100327.34;4973222;28;20080;-78
2022/06/24 07:59:28;;;;;;;4.53;3.78;;;;;;;30.94;32.98;100321.13;5002592;28;20064;-78
2022/06/24 08:01:56;;;;;;;4.15;3.47;;;;;;;30.70;32.78;100324.69;4997011;28;20052;-78
2022/06/24 08:04:25;;;;;;;4.60;4.20;;;;;;;30.37;33.64;100317.47;5012863;28;20045;-78
2022/06/24 08:06:52;;;;;;;4.55;3.30;;;;;;;30.35;33.18;100319.47;4997627;28;20457;-77
2022/06/24 08:09:21;;;;;;;5.03;3.58;;;;;;;30.59;32.14;100308.59;5034609;28;20552;-77
2022/06/24 08:11:47;;;;;;;4.30;3.70;;;;;;;30.83;32.62;100311.38;5013680;28;20572;-78
2022/06/24 08:14:15;;;;;;;8.05;4.15;;;;;;;31.10;32.34;100310.16;4993120;28;20485;-78
2022/06/24 08:16:43;;;;;;;4.35;3.55;;;;;;;31.05;31.70;100298.06;5008842;28;20466;-77
2022/06/24 08:19:13;;;;;;;4.03;3.55;;;;;;;30.95;30.06;100298.25;4993608;28;20126;-78
2022/06/24 08:21:40;;;;;;;3.88;3.22;;;;;;;31.02;31.27;100293.78;4993014;28;20041;-77
2022/06/24 08:24:07;;;;;;;4.72;3.30;;;;;;;31.31;30.89;100287.81;4983997;28;20076;-78
2022/06/24 08:26:34;;;;;;;4.05;3.75;;;;;;;31.66;31.12;100283.78;5031117;28;20044;-78
2022/06/24 08:29:01;;;;;;;4.13;3.38;;;;;;;31.56;30.22;100287.75;4994807;28;20165;-77
2022/06/24 08:31:27;;;;;;;4.07;3.38;;;;;;;30.94;30.10;100279.31;5004132;28;20036;-77
2022/06/24 08:33:54;;;;;;;3.88;3.25;;;;;;;31.27;30.15;100281.00;5026424;28;20057;-78
2022/06/24 08:36:25;;;;;;;4.93;3.60;;;;;;;31.18;29.99;100270.25;5002523;28;20042;-77
2022/06/24 08:38:55;;;;;;;4.25;3.05;;;;;;;30.85;29.03;100283.06;5029602;28;20041;-78
2022/06/24 08:41:24;;;;;;;3.65;3.13;;;;;;;30.88;29.98;100278.16;5031043;28;20410;-78
2022/06/24 08:43:52;;;;;;;4.32;2.88;;;;;;;30.93;30.37;100278.47;4997681;28;20050;-78
2022/06/24 08:46:19;;;;;;;3.50;3.20;;;;;;;31.37;29.94;100262.56;4997402;28;20048;-78
2022/06/24 08:48:48;;;;;;;5.95;3.13;;;;;;;31.46;30.04;100274.31;4992620;28;20048;-77
2022/06/24 08:51:15;;;;;;;4.75;3.03;;;;;;;31.84;29.95;100278.09;4995799;28;20042;-77
2022/06/24 08:53:43;;;;;;;5.07;3.45;;;;;;;31.91;29.26;100270.88;4995187;28;20041;-78
2022/06/24 08:56:12;;;;;;;4.43;3.00;;;;;;;31.87;27.64;100275.00;5001875;28;20125;-78
2022/06/24 08:58:40;;;;;;;3.67;3.30;;;;;;;31.59;28.83;100260.94;4993921;28;20046;-77
2022/06/24 09:01:15;;;;;;;3.50;3.20;;;;;;;30.85;28.25;100262.09;5031060;28;20037;-77
2022/06/24 09:03:44;;;;;;;3.47;3.00;;;;;;;31.15;28.38;100268.72;5012884;28;20041;-78
2022/06/24 09:06:12;;;;;;;3.72;3.10;;;;;;;31.62;29.35;100260.59;4996853;28;20045;-78
2022/06/24 09:08:40;;;;;;;3.60;3.30;;;;;;;31.88;29.01;100257.59;5009117;28;20417;-79
2022/06/24 09:11:07;;;;;;;3.75;3.15;;;;;;;31.82;27.84;100250.09;4993787;28;20133;-79
2022/06/24 09:13:48;;;;;;;4.47;3.00;;;;;;;31.45;29.24;100249.88;5009140;28;20055;-81
2022/06/24 09:16:17;;;;;;;3.88;3.00;;;;;;;31.84;28.10;100242.56;5005107;28;20036;-79
2022/06/24 09:18:52;;;;;;;3.30;3.00;;;;;;;32.03;28.27;100248.59;5022388;28;20668;-79
2022/06/24 09:21:30;;;;;;;3.75;3.33;;;;;;;32.33;27.60;100252.38;5023114;28;20064;-80
2022/06/24 09:23:59;;;;;;;74.45;12.27;;;;;;;32.64;28.12;100261.34;4977385;28;20061;-79
2022/06/24 09:26:36;;;;;;;4.05;3.58;;;;;;;32.34;28.02;100251.34;4991029;28;20076;-79
2022/06/24 09:29:06;;;;;;;4.28;3.00;;;;;;;31.64;27.15;100255.78;5013686;28;20514;-80
2022/06/24 09:31:33;;;;;;;5.30;3.38;;;;;;;31.77;27.69;100238.00;5013921;28;20052;-78
2022/06/24 09:34:07;;;;;;;15.63;4.78;;;;;;;32.01;29.07;100246.06;5011687;28;20086;-79
2022/06/24 09:36:34;;;;;;;4.30;3.90;;;;;;;31.82;29.03;100241.91;4992165;28;20042;-80
2022/06/24 09:39:03;;;;;;;4.78;4.13;;;;;;;31.55;30.34;100236.91;4992322;28;20046;-79
2022/06/24 09:41:31;;;;;;;4.38;3.97;;;;;;;32.18;28.26;100228.50;4985159;28;20040;-78
2022/06/24 09:43:58;;;;;;;6.18;3.60;;;;;;;31.70;29.12;100226.94;4997231;28;20045;-78
2022/06/24 09:46:26;;;;;;;4.60;4.13;;;;;;;31.71;30.07;100214.97;5014744;28;20029;-80
2022/06/24 09:49:02;;;;;;;29.38;6.53;;;;;;;31.89;29.00;100229.25;5005697;28;20050;-78
2022/06/24 09:51:29;;;;;;;4.50;4.07;;;;;;;31.73;29.15;100217.53;5016547;28;20065;-78
2022/06/24 09:53:56;;;;;;;4.20;3.75;;;;;;;31.27;29.43;100225.56;5034047;28;20053;-79
2022/06/24 09:56:23;;;;;;;3.83;3.53;;;;;;;32.16;29.77;100221.53;4994211;28;20034;-79
2022/06/24 10:01:37;;;;;;;6.00;3.20;;;;;;;32.42;27.63;100216.56;5023828;28;20038;-80
2022/06/24 10:04:06;;;;;;;4.10;3.10;;;;;;;32.74;27.86;100207.22;5017932;28;20532;-80
2022/06/24 10:06:35;;;;;;;4.10;3.70;;;;;;;32.43;28.23;100203.75;5044712;28;20037;-81
2022/06/24 10:09:04;;;;;;;4.68;3.70;;;;;;;32.86;27.90;100195.84;4982630;28;20045;-79
2022/06/24 10:11:39;;;;;;;5.60;3.70;;;;;;;33.34;27.75;100224.56;4992693;28;20189;-81
2022/06/24 10:14:07;;;;;;;4.43;3.60;;;;;;;32.47;27.96;100208.69;4990640;28;20050;-78
2022/06/24 10:16:34;;;;;;;3.97;3.67;;;;;;;32.52;27.36;100213.59;5018569;28;20045;-78
2022/06/24 10:19:02;;;;;;;3.60;3.30;;;;;;;32.90;27.83;100206.25;5021255;28;20576;-81
2022/06/24 10:21:29;;;;;;;4.13;3.65;;;;;;;32.49;27.11;100203.88;5003659;28;20046;-79
2022/06/24 10:23:59;;;;;;;4.22;3.10;;;;;;;32.52;26.48;100210.00;4999757;28;20391;-79
2022/06/24 10:26:28;;;;;;;3.55;3.25;;;;;;;32.88;26.86;100197.38;5017289;28;20568;-79
2022/06/24 10:29:04;;;;;;;3.90;3.58;;;;;;;31.95;26.54;100197.59;4982489;28;20049;-79
2022/06/24 10:31:49;;;;;;;4.25;3.58;;;;;;;32.74;27.38;100189.97;5006565;28;20053;-78
2022/06/24 10:34:20;;;;;;;3.45;3.15;;;;;;;33.12;25.86;100193.50;5009096;28;20064;-79
2022/06/24 10:36:50;;;;;;;51.88;9.82;;;;;;;33.80;25.77;100183.22;5012109;28;20614;-80
2022/06/24 10:39:18;;;;;;;3.92;3.28;;;;;;;33.72;25.32;100178.75;4989278;28;20048;-81
2022/06/24 10:41:45;;;;;;;3.78;3.30;;;;;;;34.05;24.16;100176.34;5000031;28;20045;-80
2022/06/24 10:44:28;;;;;;;5.38;3.00;;;;;;;34.17;24.84;100170.38;4999809;28;20041;-79
2022/06/24 10:47:04;;;;;;;9.73;4.53;;;;;;;34.22;25.07;100170.63;4994395;28;20050;-80
2022/06/24 10:49:52;;;;;;;4.72;3.33;;;;;;;33.75;23.84;100163.78;5015843;28;20048;-79
2022/06/24 10:52:35;;;;;;;11.18;4.57;;;;;;;33.70;23.63;100163.53;5014828;28;20485;-81
2022/06/24 10:55:15;;;;;;;7.15;3.30;;;;;;;33.67;23.67;100153.81;5020190;28;20041;-79
2022/06/24 10:57:50;;;;;;;4.00;3.30;;;;;;;33.66;24.10;100148.53;5016790;28;20101;-80
2022/06/24 11:00:37;;;;;;;3.47;3.05;;;;;;;33.15;24.53;100157.56;4999522;28;20052;-83
2022/06/24 11:03:08;;;;;;;4.38;3.28;;;;;;;32.90;24.09;100146.06;5014415;28;20049;-79
2022/06/24 11:05:37;;;;;;;3.45;2.90;;;;;;;32.48;25.41;100160.31;5017912;28;20064;-79
2022/06/24 11:08:24;;;;;;;3.80;3.30;;;;;;;32.06;25.61;100144.41;5015517;28;20041;-81
2022/06/24 11:10:52;;;;;;;3.50;3.20;;;;;;;32.25;25.22;100143.91;5000490;28;20124;-80
2022/06/24 11:13:21;;;;;;;3.38;2.88;;;;;;;32.71;25.65;100128.28;5021084;28;20049;-80
2022/06/24 11:15:49;;;;;;;3.42;3.10;;;;;;;32.53;24.53;100119.56;4998577;28;20465;-82
2022/06/24 11:18:25;;;;;;;4.20;3.00;;;;;;;33.07;25.24;100129.44;4992664;28;20041;-79
2022/06/24 11:21:01;;;;;;;64.97;10.45;;;;;;;33.00;25.56;100124.72;5015950;28;20045;-79
2022/06/24 11:23:34;;;;;;;3.85;3.35;;;;;;;33.63;25.19;100122.34;4981245;28;20383;-78
2022/06/24 11:26:13;;;;;;;3.55;3.25;;;;;;;33.85;23.82;100115.84;4981088;28;20133;-79
2022/06/24 11:28:41;;;;;;;3.40;2.83;;;;;;;34.07;24.75;100129.59;4988170;28;20426;-78
2022/06/24 11:31:19;;;;;;;4.65;4.05;;;;;;;33.90;24.08;100112.56;4993193;28;20042;-78
2022/06/24 11:34:07;;;;;;;4.15;3.45;;;;;;;33.96;24.36;100106.28;5028555;28;20124;-80
2022/06/24 11:36:36;;;;;;;3.75;2.70;;;;;;;33.96;23.80;100099.94;4999338;28;20048;-80
2022/06/24 11:39:09;;;;;;;10.00;3.78;;;;;;;33.24;24.06;100104.41;5007220;28;20175;-79